createdAt,value
2018-01-15T00:00:10.211Z,-0.45
2018-01-15T00:01:10.461Z,-0.48
2018-01-15T00:02:10.185Z,-0.51
2018-01-15T00:03:10.440Z,-0.51
2018-01-15T00:04:10.430Z,-0.51
2018-01-15T00:05:10.118Z,-0.49
2018-01-15T00:06:10.651Z,-0.51
2018-01-15T00:07:10.640Z,-0.51
2018-01-15T00:08:10.334Z,-0.46
2018-01-15T00:09:10.039Z,-0.4
2018-01-15T00:10:10.290Z,-0.41
2018-01-15T00:11:10.016Z,-0.43
2018-01-15T00:12:09.989Z,-0.54
2018-01-15T00:13:09.966Z,-0.56
2018-01-15T00:14:09.970Z,-0.55
2018-01-15T00:15:10.200Z,-0.69
2018-01-15T00:16:09.907Z,-0.67
2018-01-15T00:17:10.180Z,-0.62
2018-01-15T00:18:10.163Z,-0.69
2018-01-15T00:19:09.851Z,-0.69
2018-01-15T00:20:10.102Z,-0.66
2018-01-15T00:21:10.355Z,-0.69
2018-01-15T00:22:09.800Z,-0.79
2018-01-15T00:23:10.057Z,-0.8
2018-01-15T00:24:09.756Z,-0.85
2018-01-15T00:25:10.013Z,-0.95
2018-01-15T00:26:10.012Z,-0.98
2018-01-15T00:27:09.700Z,-1.03
2018-01-15T00:28:09.685Z,-1.16
2018-01-15T00:29:09.683Z,-1.17
2018-01-15T00:30:09.918Z,-1.22
2018-01-15T00:31:09.900Z,-1.37
2018-01-15T00:32:09.604Z,-1.38
2018-01-15T00:33:09.587Z,-1.46
2018-01-15T00:34:09.837Z,-1.4
2018-01-15T00:35:09.547Z,-1.48
2018-01-15T00:36:09.800Z,-1.5
2018-01-15T00:37:09.800Z,-1.48
2018-01-15T00:38:09.497Z,-1.63
2018-01-15T00:39:09.741Z,-1.64
2018-01-15T00:40:09.720Z,-1.58
2018-01-15T00:41:09.432Z,-1.64
2018-01-15T00:42:09.413Z,-1.7
2018-01-15T00:43:09.982Z,-1.7
2018-01-15T00:44:09.653Z,-1.86
2018-01-15T00:45:09.629Z,-1.82
2018-01-15T00:46:09.336Z,-1.81
2018-01-15T00:47:09.317Z,-1.73
2018-01-15T00:48:09.565Z,-1.81
2018-01-15T00:49:09.277Z,-1.78
2018-01-15T00:50:09.264Z,-1.88
2018-01-15T00:51:09.507Z,-1.89
2018-01-15T00:52:09.242Z,-1.86
2018-01-15T00:53:09.470Z,-1.89
2018-01-15T00:54:09.180Z,-1.96
2018-01-15T00:55:09.431Z,-1.91
2018-01-15T00:56:09.140Z,-1.92
2018-01-15T00:57:09.394Z,-1.99
2018-01-15T00:58:09.108Z,-1.94
2018-01-15T00:59:09.354Z,-2
2018-01-15T01:00:09.338Z,-1.99
2018-01-15T01:01:09.326Z,-2
2018-01-15T01:02:09.294Z,-1.96
2018-01-15T01:03:09.570Z,-1.99
2018-01-15T01:04:08.984Z,-2.05
2018-01-15T01:05:09.242Z,-2.02
2018-01-15T01:06:09.487Z,-1.99
2018-01-15T01:07:09.194Z,-1.96
2018-01-15T01:08:09.175Z,-2.05
2018-01-15T01:09:08.927Z,-2.1
2018-01-15T01:10:09.418Z,-2
2018-01-15T01:11:09.124Z,-2.07
2018-01-15T01:12:08.827Z,-2.07
2018-01-15T01:13:08.821Z,-2.1
2018-01-15T01:14:09.346Z,-2.09
2018-01-15T01:15:09.037Z,-2.1
2018-01-15T01:16:08.749Z,-2.12
2018-01-15T01:17:09.021Z,-2.09
2018-01-15T01:18:08.709Z,-2.09
2018-01-15T01:19:08.689Z,-2.2
2018-01-15T01:20:08.941Z,-2.14
2018-01-15T01:21:08.852Z,-2.2
2018-01-15T01:22:08.903Z,-2.06
2018-01-15T01:23:08.609Z,-2.06
2018-01-15T01:24:08.591Z,-2.07
2018-01-15T01:25:08.841Z,-2.09
2018-01-15T01:26:08.822Z,-2.07
2018-01-15T01:27:09.080Z,-2.17
2018-01-15T01:28:09.054Z,-2.05
2018-01-15T01:29:08.773Z,-2.18
2018-01-15T01:30:08.751Z,-2.07
2018-01-15T01:31:08.725Z,-2.09
2018-01-15T01:32:08.712Z,-2.06
2018-01-15T01:33:08.432Z,-2.17
2018-01-15T01:34:08.676Z,-2.12
2018-01-15T01:35:08.644Z,-2.18
2018-01-15T01:36:08.353Z,-2.18
2018-01-15T01:37:08.335Z,-2.25
2018-01-15T01:38:08.665Z,-2.2
2018-01-15T01:39:08.338Z,-2.23
2018-01-15T01:40:08.275Z,-2.18
2018-01-15T01:41:08.281Z,-2.18
2018-01-15T01:42:08.248Z,-2.18
2018-01-15T01:43:08.213Z,-2.21
2018-01-15T01:44:08.196Z,-2.21
2018-01-15T01:45:08.173Z,-2.17
2018-01-15T01:46:08.430Z,-2.18
2018-01-15T01:47:08.134Z,-2.23
2018-01-15T01:48:08.117Z,-2.32
2018-01-15T01:49:08.367Z,-2.24
2018-01-15T01:50:08.358Z,-2.27
2018-01-15T01:51:08.605Z,-2.27
2018-01-15T01:52:08.312Z,-2.25
2018-01-15T01:53:08.284Z,-2.3
2018-01-15T01:54:07.997Z,-2.28
2018-01-15T01:55:07.976Z,-2.23
2018-01-15T01:56:08.227Z,-2.34
2018-01-15T01:57:07.936Z,-2.25
2018-01-15T01:58:08.478Z,-2.27
2018-01-15T01:59:08.205Z,-2.2
2018-01-15T02:00:08.151Z,-2.2
2018-01-15T02:01:08.159Z,-2.21
2018-01-15T02:02:07.858Z,-2.34
2018-01-15T02:03:07.817Z,-2.34
2018-01-15T02:04:08.074Z,-2.28
2018-01-15T02:05:07.781Z,-2.32
2018-01-15T02:06:08.037Z,-2.34
2018-01-15T02:07:08.287Z,-2.32
2018-01-15T02:08:07.986Z,-2.36
2018-01-15T02:09:07.697Z,-2.27
2018-01-15T02:10:07.949Z,-2.28
2018-01-15T02:11:07.657Z,-2.23
2018-01-15T02:12:07.648Z,-2.27
2018-01-15T02:13:07.888Z,-2.21
2018-01-15T02:14:07.867Z,-2.3
2018-01-15T02:15:07.850Z,-2.27
2018-01-15T02:16:07.563Z,-2.28
2018-01-15T02:17:07.536Z,-2.24
2018-01-15T02:18:07.790Z,-2.3
2018-01-15T02:19:07.829Z,-2.25
2018-01-15T02:20:07.747Z,-2.27
2018-01-15T02:21:07.730Z,-2.3
2018-01-15T02:22:07.457Z,-2.34
2018-01-15T02:23:07.428Z,-2.32
2018-01-15T02:24:07.669Z,-2.21
2018-01-15T02:25:07.378Z,-2.23
2018-01-15T02:26:07.628Z,-2.27
2018-01-15T02:27:07.337Z,-2.39
2018-01-15T02:28:07.593Z,-2.34
2018-01-15T02:29:07.568Z,-2.39
2018-01-15T02:30:07.277Z,-2.39
2018-01-15T02:31:07.260Z,-2.24
2018-01-15T02:32:07.792Z,-2.17
2018-01-15T02:33:07.489Z,-2.32
2018-01-15T02:34:07.467Z,-2.24
2018-01-15T02:35:07.725Z,-2.23
2018-01-15T02:36:07.447Z,-2.28
2018-01-15T02:37:07.139Z,-2.24
2018-01-15T02:38:07.118Z,-2.17
2018-01-15T02:39:07.376Z,-2.3
2018-01-15T02:40:07.349Z,-2.27
2018-01-15T02:41:07.339Z,-2.28
2018-01-15T02:42:07.036Z,-2.21
2018-01-15T02:43:07.289Z,-2.34
2018-01-15T02:44:07.000Z,-2.27
2018-01-15T02:45:07.541Z,-2.32
2018-01-15T02:46:07.499Z,-2.4
2018-01-15T02:47:06.937Z,-2.37
2018-01-15T02:48:06.938Z,-2.43
2018-01-15T02:49:06.896Z,-2.36
2018-01-15T02:50:07.424Z,-2.36
2018-01-15T02:51:07.150Z,-2.4
2018-01-15T02:52:06.843Z,-2.34
2018-01-15T02:53:06.816Z,-2.43
2018-01-15T02:54:06.798Z,-2.32
2018-01-15T02:55:07.049Z,-2.4
2018-01-15T02:56:07.030Z,-2.42
2018-01-15T02:57:07.019Z,-2.4
2018-01-15T02:58:06.986Z,-2.42
2018-01-15T02:59:06.975Z,-2.42
2018-01-15T03:00:06.945Z,-2.34
2018-01-15T03:01:06.659Z,-2.4
2018-01-15T03:02:06.639Z,-2.46
2018-01-15T03:03:07.169Z,-2.36
2018-01-15T03:04:06.868Z,-2.37
2018-01-15T03:05:06.851Z,-2.42
2018-01-15T03:06:06.558Z,-2.46
2018-01-15T03:07:06.542Z,-2.28
2018-01-15T03:08:06.813Z,-2.39
2018-01-15T03:09:07.038Z,-2.39
2018-01-15T03:10:06.478Z,-2.37
2018-01-15T03:11:06.464Z,-2.42
2018-01-15T03:12:06.708Z,-2.42
2018-01-15T03:13:06.966Z,-2.39
2018-01-15T03:14:06.686Z,-2.39
2018-01-15T03:15:06.377Z,-2.36
2018-01-15T03:16:06.365Z,-2.4
2018-01-15T03:17:06.608Z,-2.4
2018-01-15T03:18:06.587Z,-2.36
2018-01-15T03:19:06.298Z,-2.42
2018-01-15T03:20:06.280Z,-2.46
2018-01-15T03:21:06.799Z,-2.39
2018-01-15T03:22:06.237Z,-2.24
2018-01-15T03:23:06.774Z,-2.42
2018-01-15T03:24:06.466Z,-2.4
2018-01-15T03:25:06.460Z,-2.36
2018-01-15T03:26:06.452Z,-2.39
2018-01-15T03:27:06.152Z,-2.37
2018-01-15T03:28:06.118Z,-2.24
2018-01-15T03:29:06.118Z,-2.28
2018-01-15T03:30:06.078Z,-2.3
2018-01-15T03:31:07.209Z,-2.3
2018-01-15T03:32:06.310Z,-2.2
2018-01-15T03:33:06.295Z,-2.34
2018-01-15T03:34:06.014Z,-2.27
2018-01-15T03:35:05.976Z,-2.28
2018-01-15T03:36:05.958Z,-2.27
2018-01-15T03:37:06.209Z,-2.25
2018-01-15T03:38:06.458Z,-2.24
2018-01-15T03:39:06.168Z,-2.27
2018-01-15T03:40:06.145Z,-2.34
2018-01-15T03:41:06.157Z,-2.36
2018-01-15T03:42:06.112Z,-2.4
2018-01-15T03:43:05.819Z,-2.43
2018-01-15T03:44:06.079Z,-2.39
2018-01-15T03:45:05.777Z,-2.43
2018-01-15T03:46:06.028Z,-2.39
2018-01-15T03:47:06.276Z,-2.44
2018-01-15T03:48:05.728Z,-2.43
2018-01-15T03:49:05.977Z,-2.42
2018-01-15T03:50:05.677Z,-2.43
2018-01-15T03:51:05.926Z,-2.42
2018-01-15T03:52:05.906Z,-2.43
2018-01-15T03:53:05.668Z,-2.46
2018-01-15T03:54:05.872Z,-2.46
2018-01-15T03:55:05.847Z,-2.43
2018-01-15T03:56:06.103Z,-2.43
2018-01-15T03:57:05.808Z,-2.43
2018-01-15T03:58:05.791Z,-2.32
2018-01-15T03:59:05.777Z,-2.46
2018-01-15T04:00:05.766Z,-2.34
2018-01-15T04:01:05.455Z,-2.4
2018-01-15T04:02:05.852Z,-2.4
2018-01-15T04:03:05.723Z,-2.43
2018-01-15T04:04:05.690Z,-2.36
2018-01-15T04:05:05.680Z,-2.4
2018-01-15T04:06:05.638Z,-2.36
2018-01-15T04:07:05.877Z,-2.36
2018-01-15T04:08:05.589Z,-2.4
2018-01-15T04:09:05.567Z,-2.36
2018-01-15T04:10:05.279Z,-2.39
2018-01-15T04:11:05.796Z,-2.36
2018-01-15T04:12:05.251Z,-2.36
2018-01-15T04:13:05.215Z,-2.37
2018-01-15T04:14:05.474Z,-2.37
2018-01-15T04:15:05.447Z,-2.32
2018-01-15T04:16:05.540Z,-2.36
2018-01-15T04:17:05.465Z,-2.28
2018-01-15T04:18:05.116Z,-2.36
2018-01-15T04:19:05.638Z,-2.39
2018-01-15T04:20:05.375Z,-2.4
2018-01-15T04:21:05.327Z,-2.32
2018-01-15T04:22:05.306Z,-2.44
2018-01-15T04:23:05.293Z,-2.37
2018-01-15T04:24:04.996Z,-2.37
2018-01-15T04:25:04.974Z,-2.43
2018-01-15T04:26:04.984Z,-2.39
2018-01-15T04:27:05.204Z,-2.37
2018-01-15T04:28:04.914Z,-2.44
2018-01-15T04:29:05.187Z,-2.39
2018-01-15T04:30:05.144Z,-2.34
2018-01-15T04:31:04.864Z,-2.39
2018-01-15T04:32:04.852Z,-2.37
2018-01-15T04:33:04.814Z,-2.36
2018-01-15T04:34:04.815Z,-2.36
2018-01-15T04:35:04.773Z,-2.37
2018-01-15T04:36:04.954Z,-2.39
2018-01-15T04:37:05.011Z,-2.4
2018-01-15T04:38:05.269Z,-2.42
2018-01-15T04:39:04.716Z,-2.32
2018-01-15T04:40:04.674Z,-2.39
2018-01-15T04:41:04.938Z,-2.43
2018-01-15T04:42:04.922Z,-2.37
2018-01-15T04:43:04.616Z,-2.36
2018-01-15T04:44:04.600Z,-2.4
2018-01-15T04:45:04.862Z,-2.36
2018-01-15T04:46:04.554Z,-2.4
2018-01-15T04:47:04.543Z,-2.37
2018-01-15T04:48:04.514Z,-2.42
2018-01-15T04:49:05.036Z,-2.39
2018-01-15T04:50:04.475Z,-2.4
2018-01-15T04:51:04.453Z,-2.4
2018-01-15T04:52:04.703Z,-2.36
2018-01-15T04:53:04.414Z,-2.44
2018-01-15T04:54:04.392Z,-2.44
2018-01-15T04:55:04.914Z,-2.5
2018-01-15T04:56:04.360Z,-2.43
2018-01-15T04:57:04.345Z,-2.46
2018-01-15T04:58:04.594Z,-2.54
2018-01-15T04:59:04.838Z,-2.49
2018-01-15T05:00:04.273Z,-2.54
2018-01-15T05:01:04.260Z,-2.49
2018-01-15T05:02:04.777Z,-2.5
2018-01-15T05:03:04.498Z,-2.37
2018-01-15T05:04:04.208Z,-2.36
2018-01-15T05:05:04.441Z,-2.53
2018-01-15T05:06:04.422Z,-2.4
2018-01-15T05:07:04.425Z,-2.36
2018-01-15T05:08:04.669Z,-2.37
2018-01-15T05:09:04.361Z,-2.39
2018-01-15T05:10:04.343Z,-2.54
2018-01-15T05:11:04.319Z,-2.44
2018-01-15T05:12:04.301Z,-2.34
2018-01-15T05:13:04.013Z,-2.4
2018-01-15T05:14:03.991Z,-2.4
2018-01-15T05:15:03.974Z,-2.42
2018-01-15T05:16:04.222Z,-2.39
2018-01-15T05:17:03.945Z,-2.4
2018-01-15T05:18:04.182Z,-2.46
2018-01-15T05:19:04.433Z,-2.4
2018-01-15T05:20:03.871Z,-2.37
2018-01-15T05:21:03.851Z,-2.39
2018-01-15T05:22:04.098Z,-2.44
2018-01-15T05:23:03.811Z,-2.32
2018-01-15T05:24:04.064Z,-2.39
2018-01-15T05:25:04.044Z,-2.37
2018-01-15T05:26:03.762Z,-2.44
2018-01-15T05:27:03.730Z,-2.32
2018-01-15T05:28:03.709Z,-2.39
2018-01-15T05:29:03.987Z,-2.4
2018-01-15T05:30:03.669Z,-2.39
2018-01-15T05:31:03.649Z,-2.43
2018-01-15T05:32:03.629Z,-2.27
2018-01-15T05:33:04.155Z,-2.2
2018-01-15T05:34:03.589Z,-2.24
2018-01-15T05:35:03.569Z,-2.21
2018-01-15T05:36:03.551Z,-2.21
2018-01-15T05:37:03.530Z,-2.25
2018-01-15T05:38:03.512Z,-2.24
2018-01-15T05:39:03.759Z,-2.21
2018-01-15T05:40:03.470Z,-2.24
2018-01-15T05:41:03.740Z,-2.2
2018-01-15T05:42:03.451Z,-2.2
2018-01-15T05:43:03.411Z,-2.25
2018-01-15T05:44:03.659Z,-2.15
2018-01-15T05:45:03.640Z,-2.24
2018-01-15T05:46:03.361Z,-2.28
2018-01-15T05:47:03.600Z,-2.24
2018-01-15T05:48:03.603Z,-2.21
2018-01-15T05:49:03.291Z,-2.24
2018-01-15T05:50:03.287Z,-2.24
2018-01-15T05:51:03.250Z,-2.23
2018-01-15T05:52:03.513Z,-2.25
2018-01-15T05:53:03.478Z,-2.21
2018-01-15T05:54:03.205Z,-2.2
2018-01-15T05:55:03.708Z,-2.25
2018-01-15T05:56:03.448Z,-2.14
2018-01-15T05:57:03.129Z,-2.21
2018-01-15T05:58:03.109Z,-2.18
2018-01-15T05:59:03.103Z,-2.12
2018-01-15T06:00:03.356Z,-2.05
2018-01-15T06:01:03.321Z,-2
2018-01-15T06:02:03.591Z,-1.85
2018-01-15T06:03:03.028Z,-1.88
2018-01-15T06:04:03.297Z,-1.85
2018-01-15T06:05:03.243Z,-1.73
2018-01-15T06:06:02.949Z,-1.7
2018-01-15T06:07:03.202Z,-1.71
2018-01-15T06:08:02.910Z,-1.6
2018-01-15T06:09:03.164Z,-1.53
2018-01-15T06:10:03.420Z,-1.53
2018-01-15T06:11:03.123Z,-1.46
2018-01-15T06:12:03.102Z,-1.55
2018-01-15T06:13:03.100Z,-1.45
2018-01-15T06:14:03.372Z,-1.5
2018-01-15T06:15:03.318Z,-1.46
2018-01-15T06:16:03.024Z,-1.49
2018-01-15T06:17:03.018Z,-1.53
2018-01-15T06:18:02.985Z,-1.52
2018-01-15T06:19:02.967Z,-1.48
2018-01-15T06:20:02.673Z,-1.34
2018-01-15T06:21:02.664Z,-1.43
2018-01-15T06:22:02.635Z,-1.38
2018-01-15T06:23:02.884Z,-1.31
2018-01-15T06:24:03.141Z,-1.37
2018-01-15T06:25:02.575Z,-1.4
2018-01-15T06:26:02.557Z,-1.28
2018-01-15T06:27:02.554Z,-1.31
2018-01-15T06:28:03.066Z,-1.25
2018-01-15T06:29:02.771Z,-1.22
2018-01-15T06:30:02.478Z,-1.17
2018-01-15T06:31:02.457Z,-1.24
2018-01-15T06:32:02.455Z,-1.22
2018-01-15T06:33:02.960Z,-1.19
2018-01-15T06:34:02.672Z,-1.27
2018-01-15T06:35:02.379Z,-1.21
2018-01-15T06:36:02.364Z,-1.22
2018-01-15T06:37:02.612Z,-1.21
2018-01-15T06:38:02.637Z,-1.07
2018-01-15T06:39:02.319Z,-1.11
2018-01-15T06:40:02.833Z,-1.09
2018-01-15T06:41:02.263Z,-1.04
2018-01-15T06:42:02.525Z,-1.1
2018-01-15T06:43:02.496Z,-1.07
2018-01-15T06:44:02.474Z,-1.09
2018-01-15T06:45:02.478Z,-1.07
2018-01-15T06:46:02.443Z,-1.04
2018-01-15T06:47:02.447Z,-1.1
2018-01-15T06:48:05.680Z,-1.01
2018-01-15T06:49:02.380Z,-1.04
2018-01-15T06:50:02.627Z,-1.03
2018-01-15T06:51:02.338Z,-0.96
2018-01-15T06:52:02.049Z,-0.99
2018-01-15T06:53:02.299Z,-0.99
2018-01-15T06:54:02.652Z,-1.06
2018-01-15T06:55:01.992Z,-1.07
2018-01-15T06:56:01.972Z,-1.14
2018-01-15T06:57:01.953Z,-1.06
2018-01-15T06:58:01.932Z,-1.13
2018-01-15T06:59:01.915Z,-1.1
2018-01-15T07:00:02.478Z,-1.1
2018-01-15T07:01:02.431Z,-1.14
2018-01-15T07:02:01.856Z,-1.17
2018-01-15T07:03:01.836Z,-1.16
2018-01-15T07:04:02.089Z,-1.21
2018-01-15T07:05:02.072Z,-1.21
2018-01-15T07:06:02.051Z,-1.3
2018-01-15T07:07:02.029Z,-1.28
2018-01-15T07:08:02.238Z,-1.27
2018-01-15T07:09:01.994Z,-1.19
2018-01-15T07:10:02.032Z,-1.27
2018-01-15T07:11:01.953Z,-1.28
2018-01-15T07:12:02.207Z,-1.25
2018-01-15T07:13:01.916Z,-1.31
2018-01-15T07:14:01.659Z,-1.3
2018-01-15T07:15:01.603Z,-1.42
2018-01-15T07:16:01.861Z,-1.42
2018-01-15T07:17:02.506Z,-1.48
2018-01-15T07:18:01.635Z,-1.53
2018-01-15T07:19:01.883Z,-1.45
2018-01-15T07:20:01.813Z,-1.42
2018-01-15T07:21:01.775Z,-1.48
2018-01-15T07:22:01.809Z,-1.43
2018-01-15T07:23:01.768Z,-1.45
2018-01-15T07:24:01.700Z,-1.52
2018-01-15T07:25:01.955Z,-1.5
2018-01-15T07:26:01.435Z,-1.37
2018-01-15T07:27:01.369Z,-1.42
2018-01-15T07:28:01.899Z,-1.31
2018-01-15T07:29:01.332Z,-1.35
2018-01-15T07:30:01.656Z,-1.27
2018-01-15T07:31:01.292Z,-1.21
2018-01-15T07:32:01.820Z,-1.27
2018-01-15T07:33:01.268Z,-1.21
2018-01-15T07:34:01.505Z,-1.17
2018-01-15T07:35:01.226Z,-1.24
2018-01-15T07:36:01.485Z,-1.22
2018-01-15T07:37:01.451Z,-1.1
2018-01-15T07:38:01.158Z,-1.16
2018-01-15T07:39:01.424Z,-1.14
2018-01-15T07:40:01.388Z,-1.16
2018-01-15T07:41:01.637Z,-1.16
2018-01-15T07:42:01.101Z,-1.06
2018-01-15T07:43:01.330Z,-1.14
2018-01-15T07:44:01.041Z,-1.09
2018-01-15T07:45:01.026Z,-1.11
2018-01-15T07:46:01.278Z,-0.96
2018-01-15T07:47:00.982Z,-0.98
2018-01-15T07:48:01.512Z,-0.92
2018-01-15T07:49:01.217Z,-0.95
2018-01-15T07:50:00.927Z,-0.98
2018-01-15T07:51:01.180Z,-0.95
2018-01-15T07:52:01.180Z,-0.98
2018-01-15T07:53:01.404Z,-0.92
2018-01-15T07:54:01.130Z,-0.99
2018-01-15T07:55:01.098Z,-0.87
2018-01-15T07:56:01.089Z,-0.93
2018-01-15T07:57:01.057Z,-0.99
2018-01-15T07:58:00.773Z,-0.95
2018-01-15T07:59:00.755Z,-0.96
2018-01-15T08:00:00.730Z,-0.99
2018-01-15T08:01:01.257Z,-1.06
2018-01-15T08:02:00.704Z,-1.11
2018-01-15T08:03:01.212Z,-1.27
2018-01-15T08:04:00.925Z,-1.22
2018-01-15T08:05:01.175Z,-1.24
2018-01-15T08:06:00.893Z,-1.27
2018-01-15T08:07:00.885Z,-1.38
2018-01-15T08:08:00.576Z,-1.38
2018-01-15T08:09:00.863Z,-1.37
2018-01-15T08:10:00.559Z,-1.37
2018-01-15T08:11:00.788Z,-1.42
2018-01-15T08:12:00.500Z,-1.38
2018-01-15T08:13:01.023Z,-1.43
2018-01-15T08:14:00.461Z,-1.52
2018-01-15T08:15:00.440Z,-1.46
2018-01-15T08:16:00.712Z,-1.38
2018-01-15T08:17:00.406Z,-1.46
2018-01-15T08:18:00.655Z,-1.52
2018-01-15T08:19:00.365Z,-1.4
2018-01-15T08:20:00.889Z,-1.56
2018-01-15T08:21:00.329Z,-1.46
2018-01-15T08:22:00.311Z,-1.55
2018-01-15T08:23:00.288Z,-1.46
2018-01-15T08:24:00.266Z,-1.45
2018-01-15T08:25:00.248Z,-1.49
2018-01-15T08:26:00.500Z,-1.4
2018-01-15T08:27:00.208Z,-1.42
2018-01-15T08:28:00.188Z,-1.5
2018-01-15T08:29:00.168Z,-1.38
2018-01-15T08:30:00.437Z,-1.45
2018-01-15T08:31:00.138Z,-1.55
2018-01-15T08:32:00.120Z,-1.46
2018-01-15T08:33:00.424Z,-1.46
2018-01-15T08:34:00.073Z,-1.42
2018-01-15T08:35:00.054Z,-1.48
2018-01-15T08:36:00.304Z,-1.49
2018-01-15T08:37:00.030Z,-1.38
2018-01-15T08:38:00.270Z,-1.46
2018-01-15T08:39:00.245Z,-1.46
2018-01-15T08:40:00.535Z,-1.38
2018-01-15T08:41:00.206Z,-1.43
2018-01-15T08:42:00.058Z,-1.43
2018-01-15T08:43:00.440Z,-1.37
2018-01-15T08:44:00.145Z,-1.43
2018-01-15T08:44:59.860Z,-1.37
2018-01-15T08:46:00.457Z,-1.31
2018-01-15T08:46:59.963Z,-1.38
2018-01-15T08:47:59.797Z,-1.38
2018-01-15T08:49:00.053Z,-1.37
2018-01-15T08:50:00.316Z,-1.35
2018-01-15T08:50:59.743Z,-1.32
2018-01-15T08:51:59.721Z,-1.38
2018-01-15T08:53:00.276Z,-1.4
2018-01-15T08:54:00.218Z,-1.37
2018-01-15T08:54:59.670Z,-1.4
2018-01-15T08:55:59.912Z,-1.28
2018-01-15T08:56:59.953Z,-1.3
2018-01-15T08:58:00.154Z,-1.28
2018-01-15T08:58:59.582Z,-1.19
2018-01-15T08:59:59.853Z,-1.19
2018-01-15T09:00:59.581Z,-1.3
2018-01-15T09:01:59.524Z,-1.28
2018-01-15T09:02:59.633Z,-1.22
2018-01-15T09:03:59.487Z,-1.24
2018-01-15T09:04:59.466Z,-1.16
2018-01-15T09:05:59.463Z,-1.16
2018-01-15T09:06:59.714Z,-1.22
2018-01-15T09:07:59.678Z,-1.22
2018-01-15T09:08:59.390Z,-1.22
2018-01-15T09:09:59.644Z,-1.13
2018-01-15T09:10:59.353Z,-1.11
2018-01-15T09:11:59.620Z,-1.1
2018-01-15T09:12:59.611Z,-1.11
2018-01-15T09:13:59.292Z,-1.22
2018-01-15T09:14:59.543Z,-1.06
2018-01-15T09:16:00.008Z,-1.13
2018-01-15T09:17:00.160Z,-1.1
2018-01-15T09:17:59.483Z,-1.1
2018-01-15T09:18:59.244Z,-1.16
2018-01-15T09:19:59.447Z,-1.06
2018-01-15T09:20:59.153Z,-0.99
2018-01-15T09:21:59.407Z,-1.03
2018-01-15T09:22:59.389Z,-0.98
2018-01-15T09:23:59.116Z,-1.04
2018-01-15T09:24:59.349Z,-0.98
2018-01-15T09:25:59.080Z,-0.99
2018-01-15T09:26:59.040Z,-0.98
2018-01-15T09:27:59.023Z,-0.99
2018-01-15T09:28:59.296Z,-0.96
2018-01-15T09:29:58.992Z,-0.95
2018-01-15T09:30:59.234Z,-0.99
2018-01-15T09:31:59.217Z,-0.95
2018-01-15T09:32:59.214Z,-0.98
2018-01-15T09:33:59.185Z,-0.91
2018-01-15T09:34:58.885Z,-0.89
2018-01-15T09:35:58.867Z,-0.84
2018-01-15T09:36:59.139Z,-0.85
2018-01-15T09:37:59.145Z,-0.79
2018-01-15T09:38:58.810Z,-0.89
2018-01-15T09:39:58.788Z,-0.82
2018-01-15T09:40:59.043Z,-0.85
2018-01-15T09:41:59.020Z,-0.89
2018-01-15T09:42:59.001Z,-0.87
2018-01-15T09:43:58.711Z,-0.82
2018-01-15T09:44:58.999Z,-0.84
2018-01-15T09:45:58.673Z,-0.85
2018-01-15T09:46:58.666Z,-0.8
2018-01-15T09:47:58.909Z,-0.77
2018-01-15T09:48:58.634Z,-0.79
2018-01-15T09:49:58.874Z,-0.79
2018-01-15T09:50:58.579Z,-0.79
2018-01-15T09:51:58.833Z,-0.8
2018-01-15T09:52:58.575Z,-0.76
2018-01-15T09:53:58.810Z,-0.84
2018-01-15T09:54:58.500Z,-0.74
2018-01-15T09:55:58.758Z,-0.67
2018-01-15T09:56:58.746Z,-0.76
2018-01-15T09:57:58.445Z,-0.76
2018-01-15T09:58:58.713Z,-0.66
2018-01-15T09:59:58.971Z,-0.8
2018-01-15T10:00:58.672Z,-0.69
2018-01-15T10:01:58.686Z,-0.73
2018-01-15T10:02:58.637Z,-0.7
2018-01-15T10:03:58.657Z,-0.7
2018-01-15T10:04:58.577Z,-0.66
2018-01-15T10:05:58.314Z,-0.64
2018-01-15T10:06:58.282Z,-0.66
2018-01-15T10:07:58.250Z,-0.64
2018-01-15T10:08:58.237Z,-0.69
2018-01-15T10:09:58.588Z,-0.7
2018-01-15T10:10:58.214Z,-0.69
2018-01-15T10:11:58.450Z,-0.73
2018-01-15T10:12:58.185Z,-0.66
2018-01-15T10:13:58.407Z,-0.67
2018-01-15T10:14:58.388Z,-0.58
2018-01-15T10:15:58.109Z,-0.67
2018-01-15T10:16:58.493Z,-0.62
2018-01-15T10:17:58.386Z,-0.66
2018-01-15T10:18:58.038Z,-0.72
2018-01-15T10:19:58.292Z,-0.7
2018-01-15T10:20:58.298Z,-0.62
2018-01-15T10:21:57.984Z,-0.56
2018-01-15T10:22:58.559Z,-0.59
2018-01-15T10:23:58.215Z,-0.59
2018-01-15T10:24:58.199Z,-0.56
2018-01-15T10:25:58.188Z,-0.52
2018-01-15T10:26:58.159Z,-0.51
2018-01-15T10:27:58.416Z,-0.52
2018-01-15T10:28:58.385Z,-0.46
2018-01-15T10:29:57.833Z,-0.43
2018-01-15T10:30:57.813Z,-0.41
2018-01-15T10:31:58.066Z,-0.38
2018-01-15T10:32:57.773Z,-0.41
2018-01-15T10:33:58.032Z,-0.34
2018-01-15T10:34:58.011Z,-0.34
2018-01-15T10:35:57.988Z,-0.27
2018-01-15T10:36:57.696Z,-0.23
2018-01-15T10:37:57.962Z,-0.28
2018-01-15T10:38:57.930Z,-0.13
2018-01-15T10:39:57.640Z,-0.09
2018-01-15T10:40:57.899Z,-0.13
2018-01-15T10:41:57.643Z,-0.01
2018-01-15T10:42:57.584Z,0.01
2018-01-15T10:43:57.840Z,0.01
2018-01-15T10:44:58.102Z,0.09
2018-01-15T10:45:57.540Z,0.06
2018-01-15T10:46:57.833Z,0.06
2018-01-15T10:47:58.030Z,0.02
2018-01-15T10:48:57.472Z,0.14
2018-01-15T10:49:57.454Z,0.09
2018-01-15T10:50:57.438Z,0.13
2018-01-15T10:51:57.430Z,0.17
2018-01-15T10:52:57.417Z,0.21
2018-01-15T10:53:57.379Z,0.16
2018-01-15T10:54:57.359Z,0.17
2018-01-15T10:55:57.895Z,0.21
2018-01-15T10:56:57.326Z,0.17
2018-01-15T10:57:57.310Z,0.16
2018-01-15T10:58:57.584Z,0.27
2018-01-15T10:59:57.269Z,0.31
2018-01-15T11:00:57.519Z,0.21
2018-01-15T11:01:57.229Z,0.35
2018-01-15T11:02:57.495Z,0.26
2018-01-15T11:03:57.480Z,0.31
2018-01-15T11:04:57.442Z,0.37
2018-01-15T11:05:57.425Z,0.34
2018-01-15T11:06:57.437Z,0.38
2018-01-15T11:07:57.126Z,0.35
2018-01-15T11:08:57.097Z,0.35
2018-01-15T11:09:57.079Z,0.41
2018-01-15T11:10:57.061Z,0.45
2018-01-15T11:11:57.314Z,0.41
2018-01-15T11:12:57.320Z,0.44
2018-01-15T11:13:57.274Z,0.48
2018-01-15T11:14:56.988Z,0.45
2018-01-15T11:15:57.246Z,0.58
2018-01-15T11:16:56.972Z,0.53
2018-01-15T11:17:56.941Z,0.64
2018-01-15T11:18:57.204Z,0.58
2018-01-15T11:19:56.897Z,0.63
2018-01-15T11:20:57.167Z,0.64
2018-01-15T11:21:57.129Z,0.71
2018-01-15T11:22:56.841Z,0.67
2018-01-15T11:23:57.090Z,0.66
2018-01-15T11:24:56.802Z,0.78
2018-01-15T11:25:57.364Z,0.84
2018-01-15T11:26:57.057Z,0.89
2018-01-15T11:27:56.769Z,0.79
2018-01-15T11:28:57.000Z,0.93
2018-01-15T11:29:56.980Z,0.82
2018-01-15T11:30:56.693Z,0.93
2018-01-15T11:31:56.675Z,0.96
2018-01-15T11:32:56.656Z,0.97
2018-01-15T11:33:56.637Z,1.02
2018-01-15T11:34:56.899Z,1.07
2018-01-15T11:35:56.615Z,1.08
2018-01-15T11:36:56.859Z,1.1
2018-01-15T11:37:56.584Z,1.1
2018-01-15T11:38:56.550Z,1.04
2018-01-15T11:39:56.531Z,1.1
2018-01-15T11:40:56.794Z,1.11
2018-01-15T11:41:56.768Z,1.1
2018-01-15T11:42:56.754Z,1.1
2018-01-15T11:43:56.461Z,1.15
2018-01-15T11:44:56.441Z,1.1
2018-01-15T11:45:56.424Z,1.12
2018-01-15T11:46:56.948Z,1.12
2018-01-15T11:47:56.406Z,1.08
2018-01-15T11:48:56.371Z,1.03
2018-01-15T11:49:56.352Z,1.1
2018-01-15T11:50:56.891Z,1.11
2018-01-15T11:51:56.877Z,1.15
2018-01-15T11:52:56.570Z,1.18
2018-01-15T11:53:56.286Z,1.18
2018-01-15T11:54:56.533Z,1.17
2018-01-15T11:55:56.514Z,1.1
2018-01-15T11:56:56.230Z,1.18
2018-01-15T11:57:56.211Z,1.21
2018-01-15T11:58:56.459Z,1.2
2018-01-15T11:59:56.179Z,1.18
2018-01-15T12:00:56.158Z,1.18
2018-01-15T12:01:56.137Z,1.2
2018-01-15T12:02:56.396Z,1.24
2018-01-15T12:03:56.102Z,1.17
2018-01-15T12:04:56.369Z,1.18
2018-01-15T12:05:56.063Z,1.2
2018-01-15T12:06:56.051Z,1.28
2018-01-15T12:07:56.047Z,1.2
2018-01-15T12:08:56.590Z,1.26
2018-01-15T12:09:56.268Z,1.22
2018-01-15T12:10:55.974Z,1.2
2018-01-15T12:11:56.227Z,1.28
2018-01-15T12:12:55.940Z,1.22
2018-01-15T12:13:56.220Z,1.24
2018-01-15T12:14:56.190Z,1.28
2018-01-15T12:15:55.902Z,1.21
2018-01-15T12:16:55.869Z,1.18
2018-01-15T12:17:56.124Z,1.28
2018-01-15T12:18:56.376Z,1.29
2018-01-15T12:19:56.357Z,1.24
2018-01-15T12:20:56.069Z,1.2
2018-01-15T12:21:56.066Z,1.24
2018-01-15T12:22:56.052Z,1.22
2018-01-15T12:23:56.015Z,1.28
2018-01-15T12:24:56.297Z,1.35
2018-01-15T12:25:55.722Z,1.29
2018-01-15T12:26:55.972Z,1.17
2018-01-15T12:27:55.670Z,1.18
2018-01-15T12:28:55.651Z,1.24
2018-01-15T12:29:55.917Z,1.21
2018-01-15T12:30:55.892Z,1.22
2018-01-15T12:31:55.873Z,1.21
2018-01-15T12:32:55.866Z,1.22
2018-01-15T12:33:55.840Z,1.18
2018-01-15T12:34:56.093Z,1.11
2018-01-15T12:35:55.892Z,1.15
2018-01-15T12:36:55.778Z,1.17
2018-01-15T12:37:55.516Z,1.18
2018-01-15T12:38:56.016Z,1.18
2018-01-15T12:39:55.748Z,1.18
2018-01-15T12:40:55.710Z,1.29
2018-01-15T12:41:55.422Z,1.35
2018-01-15T12:42:55.952Z,1.4
2018-01-15T12:43:55.396Z,1.48
2018-01-15T12:44:55.642Z,1.51
2018-01-15T12:45:55.630Z,1.54
2018-01-15T12:46:55.602Z,1.42
2018-01-15T12:47:55.586Z,1.47
2018-01-15T12:48:55.566Z,1.46
2018-01-15T12:49:55.293Z,1.6
2018-01-15T12:50:55.536Z,1.5
2018-01-15T12:51:55.243Z,1.56
2018-01-15T12:52:55.224Z,1.61
2018-01-15T12:53:55.207Z,1.64
2018-01-15T12:54:55.192Z,1.71
2018-01-15T12:55:55.445Z,1.78
2018-01-15T12:56:55.430Z,1.75
2018-01-15T12:57:55.137Z,1.78
2018-01-15T12:58:55.393Z,1.79
2018-01-15T12:59:55.370Z,1.74